Time;durP1;ratioP1;P1;durP2;ratioP2;P2;SDS_P1;SDS_P2;PMS_P1;PMS_P2;Temp;Humidity;BMP_temperature;BMP_pressure;BME280_temperature;BME280_humidity;BME280_pressure;Samples;Min_cycle;Max_cycle;Signal;HPM_P1;HPM_P2
2023/02/21 02:15:22;;;;;;;2.00;0.60;;;;;;;11.57;57.31;98648.88;145306;1255;107596;-88
2023/02/21 02:18:53;;;;;;;0.80;0.50;;;;;;;11.57;57.28;98664.70;144893;1259;108447;-86
2023/02/21 02:22:44;;;;;;;2.30;0.30;;;;;;;11.55;57.10;98665.60;145106;1259;107464;-87
2023/02/21 02:26:34;;;;;;;0.40;0.30;;;;;;;11.54;57.17;98662.30;144907;1262;107703;-87
2023/02/21 02:30:21;;;;;;;0.40;0.30;;;;;;;11.53;57.10;98661.96;145221;1259;107381;-88
2023/02/21 02:34:20;;;;;;;1.20;0.60;;;;;;;11.50;56.92;98664.06;145098;1257;106656;-88
2023/02/21 02:38:06;;;;;;;1.30;0.40;;;;;;;11.50;57.00;98664.77;145097;1259;108194;-88
2023/02/21 02:41:54;;;;;;;0.60;0.40;;;;;;;11.49;56.79;98669.47;145186;1259;108376;-88
2023/02/21 02:45:40;;;;;;;1.00;0.50;;;;;;;11.48;56.63;98660.98;145054;1259;107528;-86
2023/02/21 02:49:07;;;;;;;1.00;0.50;;;;;;;11.45;56.55;98668.81;145075;1260;108082;-89
2023/02/21 02:52:28;;;;;;;0.60;0.40;;;;;;;11.44;56.44;98662.38;145121;1256;107433;-89
2023/02/21 02:55:57;;;;;;;0.80;0.40;;;;;;;11.43;56.46;98659.09;144989;1257;98344;-87
2023/02/21 02:59:24;;;;;;;1.20;0.50;;;;;;;11.42;56.42;98661.71;144991;1256;108984;-89
2023/02/21 03:02:52;;;;;;;2.00;0.50;;;;;;;11.42;56.30;98656.85;145241;1256;106379;-87
2023/02/21 03:06:25;;;;;;;1.10;0.50;;;;;;;11.40;56.07;98657.71;145096;1259;107626;-88
2023/02/21 03:09:53;;;;;;;1.00;0.50;;;;;;;11.40;56.09;98657.20;145122;1259;106525;-86
2023/02/21 03:13:26;;;;;;;1.30;0.50;;;;;;;11.42;56.11;98661.38;145121;1261;108351;-89
2023/02/21 03:16:54;;;;;;;4.20;1.10;;;;;;;11.42;55.90;98662.06;145066;1255;108408;-90
2023/02/21 03:20:17;;;;;;;2.70;0.50;;;;;;;11.41;55.89;98653.38;145118;1259;107556;-88
2023/02/21 03:23:42;;;;;;;3.30;0.90;;;;;;;11.41;55.70;98646.77;144961;1259;98345;-89
2023/02/21 03:27:08;;;;;;;2.10;0.40;;;;;;;11.41;55.64;98659.64;145007;1262;107527;-87
2023/02/21 03:30:45;;;;;;;1.80;0.60;;;;;;;11.41;55.44;98659.11;144972;1259;107571;-89
2023/02/21 03:34:06;;;;;;;1.80;0.40;;;;;;;11.39;55.60;98654.08;145134;1257;99216;-87
2023/02/21 03:37:30;;;;;;;2.10;0.60;;;;;;;11.38;55.33;98652.35;145016;1272;97953;-90
2023/02/21 03:40:52;;;;;;;0.50;0.30;;;;;;;11.37;55.33;98652.86;145192;1256;99241;-87
2023/02/21 03:44:14;;;;;;;1.30;0.60;;;;;;;11.37;55.26;98653.55;144921;1257;98069;-88
2023/02/21 03:47:36;;;;;;;2.00;0.70;;;;;;;11.35;55.09;98656.71;145158;1262;99306;-88
2023/02/21 03:51:03;;;;;;;1.30;0.70;;;;;;;11.34;55.07;98654.29;144809;1270;98803;-85
2023/02/21 03:54:29;;;;;;;1.30;0.70;;;;;;;11.33;55.17;98653.76;144853;1260;97923;-87
2023/02/21 03:57:51;;;;;;;2.60;0.60;;;;;;;11.34;55.02;98658.98;144832;1258;99241;-87
2023/02/21 04:01:14;;;;;;;1.00;0.40;;;;;;;11.34;55.01;98658.81;144853;1261;98026;-88
2023/02/21 04:04:37;;;;;;;1.00;0.60;;;;;;;11.33;54.76;98661.94;144665;1257;110003;-87
2023/02/21 04:08:05;;;;;;;3.80;1.00;;;;;;;11.32;54.72;98663.68;145058;1261;112619;-88
2023/02/21 04:11:27;;;;;;;1.80;0.50;;;;;;;11.32;54.64;98665.77;144650;1260;99235;-87
2023/02/21 04:14:51;;;;;;;5.60;0.60;;;;;;;11.30;54.43;98672.92;144919;1259;97841;-88
2023/02/21 04:18:13;;;;;;;2.90;0.50;;;;;;;11.29;54.45;98675.88;145182;1257;102386;-88
2023/02/21 04:21:36;;;;;;;2.90;0.70;;;;;;;11.28;54.14;98670.15;144972;1259;97892;-87
2023/02/21 04:24:58;;;;;;;1.70;0.60;;;;;;;11.24;54.09;98655.05;145030;1262;99222;-88
2023/02/21 04:28:27;;;;;;;2.50;1.50;;;;;;;11.22;54.13;98649.84;145016;1258;108397;-87
2023/02/21 04:31:50;;;;;;;2.10;1.10;;;;;;;11.22;53.71;98648.63;145288;1259;99300;-87
2023/02/21 04:35:12;;;;;;;5.40;0.90;;;;;;;11.19;53.74;98652.30;145039;1259;98081;-87
2023/02/21 04:38:39;;;;;;;3.10;0.80;;;;;;;11.18;53.81;98660.65;145042;1257;98004;-89
2023/02/21 04:42:01;;;;;;;2.40;0.80;;;;;;;11.18;53.61;98667.61;145178;1254;106677;-86
2023/02/21 04:45:24;;;;;;;2.60;0.70;;;;;;;11.18;53.49;98679.27;145290;1259;99300;-88
2023/02/21 04:48:49;;;;;;;3.40;0.70;;;;;;;11.19;53.61;98676.13;145710;1254;99219;-87
2023/02/21 04:52:12;;;;;;;4.20;1.40;;;;;;;11.19;53.14;98679.78;145227;1259;107518;-86
2023/02/21 04:55:34;;;;;;;3.90;1.10;;;;;;;11.17;53.42;98682.91;146445;1254;97915;-88
2023/02/21 04:58:56;;;;;;;5.00;1.00;;;;;;;11.17;53.13;98687.77;145345;1260;99250;-88
2023/02/21 05:02:18;;;;;;;5.30;1.00;;;;;;;11.17;53.06;98681.53;146138;1258;98036;-86
2023/02/21 05:05:40;;;;;;;5.50;1.50;;;;;;;11.17;52.94;98684.83;145437;1256;98306;-88
2023/02/21 05:09:02;;;;;;;1.70;0.80;;;;;;;11.17;52.76;98684.14;145455;1256;97920;-88
2023/02/21 05:12:24;;;;;;;5.00;1.20;;;;;;;11.17;52.79;98693.17;145057;1260;98082;-88
2023/02/21 05:15:49;;;;;;;3.20;1.50;;;;;;;11.18;52.67;98684.83;145195;1254;98046;-88
2023/02/21 05:19:11;;;;;;;3.60;1.10;;;;;;;11.19;52.68;98680.98;145749;1257;98233;-88
2023/02/21 05:22:34;;;;;;;3.90;0.80;;;;;;;11.21;52.48;98683.23;144935;1257;97965;-90
2023/02/21 05:25:56;;;;;;;2.40;1.00;;;;;;;11.21;52.49;98690.19;145063;1260;98024;-86
2023/02/21 05:29:20;;;;;;;3.40;0.80;;;;;;;11.19;52.18;98690.02;145198;1259;98117;-88
2023/02/21 05:32:45;;;;;;;4.90;1.00;;;;;;;11.21;52.23;98697.50;145201;1256;98100;-89
2023/02/21 05:36:07;;;;;;;5.10;1.10;;;;;;;11.24;52.24;98692.79;145191;1259;97908;-88
2023/02/21 05:39:29;;;;;;;2.70;0.70;;;;;;;11.24;51.90;98686.36;145003;1260;99200;-87
2023/02/21 05:42:51;;;;;;;3.80;1.10;;;;;;;11.24;52.10;98685.83;145266;1259;111102;-87
2023/02/21 05:46:42;;;;;;;8.10;1.00;;;;;;;11.24;51.84;98694.18;145186;1254;98351;-86
2023/02/21 05:50:04;;;;;;;4.10;1.20;;;;;;;11.26;51.86;98700.08;144268;1262;111187;-88
2023/02/21 05:53:26;;;;;;;6.20;1.70;;;;;;;11.26;51.79;98697.81;144241;1266;98010;-88
2023/02/21 05:56:49;;;;;;;2.70;0.80;;;;;;;11.27;51.61;98702.51;144397;1264;98119;-88
2023/02/21 06:00:16;;;;;;;3.60;0.80;;;;;;;11.28;51.78;98709.80;144431;1262;102320;-89
2023/02/21 06:03:38;;;;;;;5.30;1.50;;;;;;;11.27;51.63;98703.55;144610;1267;102005;-87
2023/02/21 06:07:00;;;;;;;3.30;0.80;;;;;;;11.28;51.66;98709.63;144490;1263;98016;-88
2023/02/21 06:10:22;;;;;;;3.80;0.90;;;;;;;11.30;51.60;98718.64;144574;1266;99038;-87
2023/02/21 06:13:44;;;;;;;4.00;0.80;;;;;;;11.32;51.55;98721.25;144310;1266;108061;-87
2023/02/21 06:17:06;;;;;;;4.90;1.10;;;;;;;11.33;51.62;98719.33;144313;1264;99073;-87
2023/02/21 06:20:28;;;;;;;3.00;1.20;;;;;;;11.35;51.46;98721.07;144384;1266;98219;-87
2023/02/21 06:23:52;;;;;;;6.00;1.00;;;;;;;11.38;51.26;98723.65;144319;1262;98405;-88
2023/02/21 06:27:14;;;;;;;2.40;1.00;;;;;;;11.40;51.28;98727.98;144910;1259;97992;-88
2023/02/21 06:30:36;;;;;;;7.30;1.40;;;;;;;11.41;51.14;98729.20;145221;1256;97915;-87
2023/02/21 06:33:58;;;;;;;5.20;1.00;;;;;;;11.43;51.21;98731.45;145161;1260;99273;-86
2023/02/21 06:37:20;;;;;;;2.90;0.90;;;;;;;11.44;51.05;98735.61;145606;1258;97979;-87
2023/02/21 06:40:42;;;;;;;5.30;1.30;;;;;;;11.48;51.10;98728.98;144980;1260;97960;-87
2023/02/21 06:44:04;;;;;;;5.30;1.20;;;;;;;11.53;50.88;98736.08;145100;1259;97906;-87
2023/02/21 06:47:26;;;;;;;5.60;1.10;;;;;;;11.57;50.87;98739.88;144846;1260;111049;-86
2023/02/21 06:50:48;;;;;;;2.50;0.80;;;;;;;11.58;50.82;98749.10;145115;1254;98088;-90
2023/02/21 06:54:11;;;;;;;3.70;1.10;;;;;;;11.58;50.86;98750.84;145166;1272;97998;-85
2023/02/21 06:57:33;;;;;;;5.40;2.30;;;;;;;11.59;50.92;98756.05;145161;1260;102134;-85
2023/02/21 07:00:55;;;;;;;7.60;2.10;;;;;;;11.59;50.89;98761.61;145549;1256;97990;-86
2023/02/21 07:04:19;;;;;;;3.60;1.10;;;;;;;11.63;50.56;98771.86;145223;1267;98049;-85
2023/02/21 07:07:42;;;;;;;4.00;1.10;;;;;;;11.66;50.66;98769.40;145393;1259;97836;-87
2023/02/21 07:11:04;;;;;;;6.40;1.40;;;;;;;11.70;50.82;98770.42;145071;1260;107537;-86
2023/02/21 07:14:26;;;;;;;6.90;2.80;;;;;;;11.77;50.53;98789.34;144870;1260;98418;-87
2023/02/21 07:17:48;;;;;;;3.10;1.10;;;;;;;11.79;50.64;98790.36;145118;1258;97892;-87
2023/02/21 07:21:11;;;;;;;3.80;1.00;;;;;;;11.79;50.59;98798.38;145109;1259;98737;-86
2023/02/21 07:24:36;;;;;;;6.80;1.40;;;;;;;11.81;50.56;98808.98;144891;1262;98083;-86
2023/02/21 07:27:57;;;;;;;3.90;1.50;;;;;;;11.82;50.55;98822.91;144839;1261;97960;-87
2023/02/21 07:31:19;;;;;;;4.10;1.10;;;;;;;11.84;50.49;98827.09;145443;1259;97949;-86
2023/02/21 07:34:42;;;;;;;6.00;2.00;;;;;;;11.86;50.34;98837.19;145165;1259;97924;-87
2023/02/21 07:38:04;;;;;;;7.40;1.70;;;;;;;11.88;50.49;98840.82;145118;1255;98394;-89
2023/02/21 07:41:27;;;;;;;6.40;1.30;;;;;;;11.90;50.53;98851.25;144886;1261;98011;-88
2023/02/21 07:44:55;;;;;;;4.70;1.60;;;;;;;11.92;50.42;98859.27;145263;1258;97902;-88
2023/02/21 07:48:17;;;;;;;4.30;1.00;;;;;;;11.92;50.47;98865.88;145126;1255;111097;-88
2023/02/21 07:51:39;;;;;;;4.10;1.10;;;;;;;11.94;50.64;98871.59;145171;1259;98044;-87
2023/02/21 07:55:01;;;;;;;4.70;1.20;;;;;;;11.96;50.42;98875.23;145095;1260;97928;-85
2023/02/21 07:58:24;;;;;;;4.30;2.00;;;;;;;11.98;50.48;98884.46;145135;1259;102162;-86
2023/02/21 08:01:46;;;;;;;6.80;1.10;;;;;;;12.00;50.52;98875.73;145132;1258;98394;-85
2023/02/21 08:05:08;;;;;;;5.40;1.30;;;;;;;11.99;50.35;98885.14;145013;1259;97995;-86
2023/02/21 08:08:30;;;;;;;5.80;1.70;;;;;;;12.01;50.47;98889.66;145189;1259;99192;-86
2023/02/21 08:11:52;;;;;;;3.80;1.10;;;;;;;12.07;50.43;98897.81;145131;1255;106753;-87
2023/02/21 08:15:14;;;;;;;5.60;0.90;;;;;;;12.10;50.32;98897.79;145134;1257;97953;-90
2023/02/21 08:18:36;;;;;;;3.80;1.40;;;;;;;12.12;50.41;98901.61;145360;1259;99200;-86
2023/02/21 08:21:58;;;;;;;4.50;1.60;;;;;;;12.14;50.48;98901.42;144956;1255;98012;-89
2023/02/21 08:25:20;;;;;;;4.60;1.50;;;;;;;12.18;50.51;98910.79;145026;1259;98045;-90
2023/02/21 08:28:42;;;;;;;6.10;1.00;;;;;;;12.21;50.40;98915.13;145225;1257;99117;-90
2023/02/21 08:32:04;;;;;;;6.40;1.90;;;;;;;12.22;50.36;98915.83;144966;1259;98942;-87
2023/02/21 08:35:26;;;;;;;4.10;1.40;;;;;;;12.20;50.39;98922.45;145006;1259;97944;-88
2023/02/21 08:38:48;;;;;;;4.20;1.40;;;;;;;12.21;50.36;98933.06;145293;1259;99179;-89
2023/02/21 08:42:10;;;;;;;8.00;2.00;;;;;;;12.22;50.32;98938.12;145224;1267;111014;-87
2023/02/21 08:45:34;;;;;;;3.00;1.00;;;;;;;12.25;50.37;98942.45;145341;1259;110213;-88
2023/02/21 08:48:56;;;;;;;5.80;1.80;;;;;;;12.27;50.26;98944.02;145132;1255;99180;-86
2023/02/21 08:52:20;;;;;;;4.10;1.20;;;;;;;12.29;50.35;98952.18;145083;1254;98479;-86
2023/02/21 08:55:42;;;;;;;2.20;1.10;;;;;;;12.34;50.33;98959.48;145165;1259;101506;-88
2023/02/21 08:59:04;;;;;;;3.30;1.30;;;;;;;12.36;50.44;98964.00;145339;1258;97972;-86
2023/02/21 09:02:31;;;;;;;3.60;1.40;;;;;;;12.38;50.23;98975.13;145125;1259;97989;-85
2023/02/21 09:05:54;;;;;;;5.60;1.70;;;;;;;12.41;50.24;98974.75;145167;1260;107553;-88
2023/02/21 09:09:15;;;;;;;5.40;1.40;;;;;;;12.44;50.31;98974.73;145253;1255;97909;-88
2023/02/21 09:12:38;;;;;;;4.90;1.10;;;;;;;12.45;50.39;98983.26;145345;1255;98054;-87
2023/02/21 09:16:01;;;;;;;4.20;1.30;;;;;;;12.48;50.29;98991.27;145440;1259;97915;-86
2023/02/21 09:19:23;;;;;;;3.70;1.50;;;;;;;12.53;50.41;98995.06;145854;1257;97912;-86
2023/02/21 09:22:46;;;;;;;4.30;1.50;;;;;;;12.56;50.21;99002.73;146208;1259;98056;-87
2023/02/21 09:26:16;;;;;;;5.90;2.10;;;;;;;12.60;50.27;99003.73;145637;1259;98078;-86
2023/02/21 09:29:38;;;;;;;3.90;1.40;;;;;;;12.67;50.21;99000.02;145769;1257;97980;-87
2023/02/21 09:33:08;;;;;;;3.90;1.40;;;;;;;12.77;50.28;99004.31;146151;1254;97906;-89
2023/02/21 09:36:35;;;;;;;4.30;1.50;;;;;;;12.84;50.12;99020.28;145740;1257;98325;-90
2023/02/21 09:39:58;;;;;;;3.10;1.50;;;;;;;12.94;50.05;99023.36;145639;1259;98047;-88
2023/02/21 09:43:33;;;;;;;3.90;1.40;;;;;;;13.06;49.96;99029.02;145683;1258;97938;-83
2023/02/21 09:47:02;;;;;;;5.90;2.00;;;;;;;13.22;49.96;99037.27;145344;1258;97918;-82
2023/02/21 09:50:30;;;;;;;4.40;1.90;;;;;;;13.33;49.75;99046.45;145515;1259;97900;-83
2023/02/21 09:53:55;;;;;;;4.70;1.60;;;;;;;13.47;49.73;99049.64;145442;1258;99203;-83
2023/02/21 09:57:17;;;;;;;3.30;1.30;;;;;;;13.60;49.65;99058.40;145516;1255;99322;-83
2023/02/21 10:00:39;;;;;;;3.20;1.10;;;;;;;13.69;49.49;99063.89;145481;1257;99186;-83
2023/02/21 10:04:21;;;;;;;3.10;1.20;;;;;;;13.77;49.42;99067.49;145954;1257;97983;-84
2023/02/21 10:07:56;;;;;;;2.20;1.20;;;;;;;13.80;49.43;99073.57;145896;1257;110888;-84
2023/02/21 10:11:37;;;;;;;6.40;1.60;;;;;;;13.83;49.27;99074.92;145625;1255;110665;-84
2023/02/21 10:15:18;;;;;;;3.70;1.50;;;;;;;13.85;49.36;99078.05;145933;1259;111152;-82
2023/02/21 10:19:17;;;;;;;3.10;1.20;;;;;;;13.96;49.31;99086.33;146085;1257;111142;-84
2023/02/21 10:22:42;;;;;;;5.60;1.50;;;;;;;14.03;49.33;99094.46;146824;1258;111252;-87
2023/02/21 10:26:24;;;;;;;4.30;1.50;;;;;;;14.13;49.30;99090.84;147013;1257;111199;-92
2023/02/21 10:30:09;;;;;;;5.00;1.70;;;;;;;14.20;49.20;99093.38;147694;1259;111157;-90
2023/02/21 10:33:36;;;;;;;5.40;1.30;;;;;;;14.24;49.11;99091.08;146949;1262;112011;-87
2023/02/21 10:37:21;;;;;;;5.10;1.50;;;;;;;14.27;49.16;99088.41;146587;1254;110622;-84
2023/02/21 10:41:01;;;;;;;5.10;2.20;;;;;;;14.28;49.05;99084.20;145442;1256;111070;-82
2023/02/21 10:44:30;;;;;;;7.30;2.20;;;;;;;14.07;49.47;99101.57;145115;1262;111001;-83
2023/02/21 10:47:59;;;;;;;3.80;1.70;;;;;;;14.10;51.42;99104.69;146080;1257;111197;-83
2023/02/21 10:51:34;;;;;;;7.30;1.60;;;;;;;14.23;52.43;99104.88;146284;1256;109933;-84
2023/02/21 10:54:59;;;;;;;3.60;1.70;;;;;;;14.30;52.50;99104.98;145939;1260;111177;-79
2023/02/21 10:58:26;;;;;;;4.40;1.60;;;;;;;14.31;52.95;99118.95;146407;1259;111152;-86
2023/02/21 11:01:52;;;;;;;8.90;1.80;;;;;;;14.43;53.20;99116.52;145614;1264;111971;-84
2023/02/21 11:05:15;;;;;;;5.60;1.60;;;;;;;14.50;53.01;99117.33;145349;1262;110651;-90
2023/02/21 11:08:41;;;;;;;4.30;1.60;;;;;;;14.50;52.66;99122.92;145288;1257;110057;-87
2023/02/21 11:12:24;;;;;;;3.50;1.50;;;;;;;14.45;52.26;99122.63;145610;1257;110866;-89
2023/02/21 11:16:16;;;;;;;4.30;1.50;;;;;;;14.17;51.72;99120.50;146059;1259;112070;-87
2023/02/21 11:19:47;;;;;;;4.90;1.60;;;;;;;13.79;50.98;99127.02;146653;1259;111087;-85
2023/02/21 11:23:32;;;;;;;4.40;1.70;;;;;;;13.52;50.67;99127.95;147281;1257;111102;-86
2023/02/21 11:26:56;;;;;;;3.10;1.20;;;;;;;13.40;50.43;99131.54;146082;1257;111227;-87
2023/02/21 11:30:21;;;;;;;6.00;2.20;;;;;;;13.37;50.62;99135.41;146113;1256;110848;-88
2023/02/21 11:34:04;;;;;;;9.80;3.50;;;;;;;13.33;50.25;99135.08;145880;1256;99186;-90
2023/02/21 11:37:27;;;;;;;4.20;2.20;;;;;;;13.32;50.13;99137.54;145773;1259;111109;-87
2023/02/21 11:40:53;;;;;;;3.70;1.70;;;;;;;13.30;50.20;99144.90;145969;1259;97986;-92
2023/02/21 11:44:31;;;;;;;7.00;2.30;;;;;;;13.24;49.84;99136.17;145661;1259;110932;-84
2023/02/21 11:48:05;;;;;;;7.80;1.50;;;;;;;13.25;49.92;99140.55;147154;1256;110263;-88
2023/02/21 11:52:01;;;;;;;5.90;1.60;;;;;;;13.40;50.30;99142.54;145419;1259;110357;-88
2023/02/21 11:55:50;;;;;;;3.30;1.60;;;;;;;13.38;49.90;99147.96;145636;1256;110890;-87
2023/02/21 11:59:38;;;;;;;3.40;1.60;;;;;;;13.43;49.63;99146.52;145783;1259;110917;-89
2023/02/21 12:03:55;;;;;;;8.50;2.50;;;;;;;13.46;49.56;99146.15;146289;1257;111001;-86
2023/02/21 12:07:53;;;;;;;5.40;1.60;;;;;;;13.56;49.15;99144.68;144973;1265;112964;-87
2023/02/21 12:11:57;;;;;;;6.90;1.70;;;;;;;13.62;48.81;99154.39;145645;1270;111602;-92
2023/02/21 12:16:13;;;;;;;5.30;1.30;;;;;;;13.57;48.43;99160.73;146963;1270;110649;-76
2023/02/21 12:20:37;;;;;;;5.20;1.90;;;;;;;13.58;48.10;99159.50;145680;1279;111165;-77
2023/02/21 12:24:56;;;;;;;3.60;1.50;;;;;;;13.47;47.77;99164.46;145880;1284;112311;-78
2023/02/21 12:28:52;;;;;;;9.40;1.90;;;;;;;13.46;47.64;99170.08;144878;1285;111071;-76
2023/02/21 12:32:52;;;;;;;7.00;1.80;;;;;;;13.42;47.38;99165.56;144152;1292;112570;-78
2023/02/21 12:37:09;;;;;;;5.20;1.90;;;;;;;13.38;47.59;99170.13;143592;1298;111552;-85
2023/02/21 12:40:59;;;;;;;2.90;1.20;;;;;;;13.38;47.34;99167.67;142696;1312;111280;-81
2023/02/21 12:44:43;;;;;;;4.60;1.80;;;;;;;13.47;47.32;99171.63;142642;1312;112134;-76
2023/02/21 12:48:25;;;;;;;4.30;2.10;;;;;;;13.57;47.08;99172.25;141448;1314;109914;-90
2023/02/21 12:52:35;;;;;;;4.30;1.60;;;;;;;13.82;46.83;99174.65;141593;1303;112321;-83
2023/02/21 12:56:07;;;;;;;8.20;1.90;;;;;;;14.28;46.11;99178.23;142958;1297;113307;-90
2023/02/21 12:59:57;;;;;;;1.10;0.80;;;;;;;14.43;45.55;99180.34;143289;1300;112064;-91
2023/02/21 13:03:28;;;;;;;4.50;1.50;;;;;;;14.73;45.45;99182.10;142831;1292;112625;-92
2023/02/21 13:07:00;;;;;;;6.00;1.40;;;;;;;15.20;45.06;99197.92;142075;1292;112165;-93
2023/02/21 13:10:32;;;;;;;4.90;1.30;;;;;;;15.42;44.53;99201.11;141752;1288;110994;-90
2023/02/21 13:13:54;;;;;;;4.00;1.20;;;;;;;15.43;44.26;99201.62;143767;1280;112207;-91
2023/02/21 13:17:19;;;;;;;11.10;1.80;;;;;;;15.29;44.05;99211.11;144503;1268;98148;-93
2023/02/21 13:20:46;;;;;;;4.20;1.60;;;;;;;15.12;43.90;99215.36;145420;1270;111229;-86
2023/02/21 13:24:35;;;;;;;3.70;1.10;;;;;;;15.22;43.92;99227.84;144145;1271;110708;-89
2023/02/21 13:28:22;;;;;;;3.80;1.50;;;;;;;15.16;43.74;99230.02;144143;1280;113341;-93
2023/02/21 13:31:45;;;;;;;5.20;2.10;;;;;;;14.96;43.70;99236.56;144309;1279;111155;-91
2023/02/21 13:35:09;;;;;;;3.60;1.70;;;;;;;14.71;43.91;99233.73;145954;1265;97880;-79
2023/02/21 13:38:33;;;;;;;3.40;1.70;;;;;;;14.46;44.12;99242.37;144173;1269;110238;-87
2023/02/21 13:42:04;;;;;;;3.90;1.30;;;;;;;14.29;44.74;99240.61;144875;1270;98506;-87
2023/02/21 13:45:27;;;;;;;3.70;1.80;;;;;;;14.42;46.33;99247.30;144938;1268;111155;-92
2023/02/21 13:49:26;;;;;;;4.20;1.80;;;;;;;14.65;46.50;99258.80;144481;1268;98418;-91
2023/02/21 13:52:52;;;;;;;;;;;;;;;14.89;47.18;99265.88;144389;1266;111221;-91
2023/02/21 13:56:16;;;;;;;7.50;1.90;;;;;;;15.02;47.32;99269.73;144822;1265;112111;-90
2023/02/21 13:59:37;;;;;;;2.70;1.70;;;;;;;15.13;47.63;99274.14;144782;1268;111126;-90
2023/02/21 14:03:04;;;;;;;5.90;2.20;;;;;;;15.22;47.72;99272.11;144893;1270;99263;-93
2023/02/21 14:06:55;;;;;;;3.20;1.50;;;;;;;15.29;47.72;99273.42;145371;1263;111135;-88
2023/02/21 14:11:11;;;;;;;2.30;1.10;;;;;;;15.33;47.87;99275.98;145284;1262;109911;-90
2023/02/21 14:14:38;;;;;;;4.80;1.30;;;;;;;15.35;47.85;99271.77;143852;1277;112157;-91
2023/02/21 14:18:02;;;;;;;5.30;1.40;;;;;;;15.36;48.08;99280.16;144306;1272;111520;-87
2023/02/21 14:22:02;;;;;;;6.10;1.70;;;;;;;15.34;48.20;99286.30;143946;1276;111265;-89
2023/02/21 14:25:25;;;;;;;4.60;1.50;;;;;;;15.33;48.26;99288.42;143322;1280;110863;-89
2023/02/21 14:28:56;;;;;;;3.30;1.40;;;;;;;15.28;48.41;99290.41;143160;1279;99465;-86
2023/02/21 14:32:24;;;;;;;2.80;1.30;;;;;;;15.25;48.60;99296.05;143463;1271;111435;-90
2023/02/21 14:36:13;;;;;;;4.20;1.50;;;;;;;15.24;49.13;99303.06;143815;1277;111836;-86
2023/02/21 14:39:39;;;;;;;9.20;1.90;;;;;;;15.53;50.64;99302.69;144056;1275;110795;-89
2023/02/21 14:43:23;;;;;;;9.90;3.00;;;;;;;15.65;50.71;99305.84;144007;1276;111138;-85
2023/02/21 14:46:54;;;;;;;18.60;3.70;;;;;;;15.58;51.14;99310.85;143917;1274;111330;-83
2023/02/21 14:50:31;;;;;;;14.00;3.60;;;;;;;15.48;52.01;99316.77;144642;1268;110718;-88
2023/02/21 14:54:06;;;;;;;21.50;3.90;;;;;;;15.45;53.00;99321.53;144749;1266;110800;-89
2023/02/21 14:58:32;;;;;;;22.30;4.10;;;;;;;15.44;53.80;99320.86;145057;1267;109909;-90
2023/02/21 15:02:17;;;;;;;12.90;3.40;;;;;;;15.38;54.82;99323.38;144551;1287;110876;-89
2023/02/21 15:06:02;;;;;;;11.60;4.10;;;;;;;15.32;55.20;99324.33;145044;1268;111073;-91
2023/02/21 15:09:25;;;;;;;10.70;3.10;;;;;;;15.28;55.96;99325.25;145242;1268;110005;-89
2023/02/21 15:12:50;;;;;;;9.80;4.00;;;;;;;15.18;55.83;99330.10;146342;1268;97966;-89
2023/02/21 15:16:14;;;;;;;14.90;3.50;;;;;;;14.89;55.42;99325.87;145724;1266;111134;-85
2023/02/21 15:20:15;;;;;;;11.00;3.40;;;;;;;14.57;55.05;99338.96;145578;1266;110999;-86
2023/02/21 15:23:43;;;;;;;14.30;4.10;;;;;;;14.26;54.92;99348.98;146282;1262;112004;-88
2023/02/21 15:27:17;;;;;;;11.30;3.10;;;;;;;14.09;55.25;99348.08;147256;1268;110494;-92
2023/02/21 15:30:56;;;;;;;15.50;3.50;;;;;;;13.95;55.19;99348.51;145358;1269;112084;-90
2023/02/21 15:34:20;;;;;;;9.00;3.00;;;;;;;13.76;54.84;99351.60;146827;1263;111092;-85
2023/02/21 15:37:44;;;;;;;11.50;3.10;;;;;;;13.58;54.73;99354.33;145967;1266;112446;-91
2023/02/21 15:42:00;;;;;;;15.00;3.50;;;;;;;13.39;54.40;99358.94;146593;1266;98158;-80
2023/02/21 15:45:30;;;;;;;14.50;3.40;;;;;;;13.21;54.28;99364.23;145981;1266;110998;-90
2023/02/21 15:48:53;;;;;;;;;;;;;;;13.20;55.72;99372.07;145637;1268;109538;-91
2023/02/21 15:52:37;;;;;;;10.70;3.10;;;;;;;13.39;57.14;99378.14;145271;1270;99235;-88
2023/02/21 15:56:30;;;;;;;11.50;3.10;;;;;;;13.55;57.41;99377.03;145658;1264;111614;-91
2023/02/21 16:00:17;;;;;;;16.10;3.80;;;;;;;13.58;56.85;99386.09;144625;1274;111604;-86
2023/02/21 16:03:43;;;;;;;15.30;4.60;;;;;;;13.46;56.23;99385.80;144315;1274;111274;-90
2023/02/21 16:07:10;;;;;;;13.60;4.00;;;;;;;13.35;56.02;99384.09;143970;1271;97977;-86
2023/02/21 16:10:32;;;;;;;10.70;3.70;;;;;;;13.28;56.03;99388.13;143845;1279;111321;-87
2023/02/21 16:13:55;;;;;;;16.00;3.60;;;;;;;13.23;56.07;99395.98;143885;1276;99350;-85
2023/02/21 16:17:34;;;;;;;15.50;3.40;;;;;;;13.20;55.84;99402.08;143926;1274;111511;-88
2023/02/21 16:21:03;;;;;;;10.20;3.60;;;;;;;13.15;55.87;99405.94;144169;1271;111221;-85
2023/02/21 16:24:31;;;;;;;13.60;4.30;;;;;;;13.02;55.56;99406.84;144745;1268;111360;-85
2023/02/21 16:27:55;;;;;;;8.70;3.20;;;;;;;12.94;55.57;99413.99;144784;1264;110737;-86
2023/02/21 16:31:31;;;;;;;7.60;3.40;;;;;;;12.88;55.61;99419.40;144850;1266;110881;-84
2023/02/21 16:34:53;;;;;;;8.70;3.60;;;;;;;12.85;55.54;99419.59;144741;1264;112141;-85
2023/02/21 16:38:17;;;;;;;12.60;4.00;;;;;;;12.80;55.67;99428.48;145103;1261;98018;-85
2023/02/21 16:41:39;;;;;;;12.20;4.10;;;;;;;12.76;55.81;99434.94;145304;1266;97984;-85
2023/02/21 16:45:01;;;;;;;13.20;4.00;;;;;;;12.71;55.69;99441.04;145445;1260;97954;-86
2023/02/21 16:48:27;;;;;;;7.90;3.40;;;;;;;12.66;55.81;99445.77;145222;1269;100705;-85
2023/02/21 16:51:49;;;;;;;12.40;3.50;;;;;;;12.61;56.01;99449.23;145555;1257;102676;-86
2023/02/21 16:55:16;;;;;;;9.30;3.70;;;;;;;12.59;56.14;99448.89;145484;1254;98047;-87
2023/02/21 16:58:50;;;;;;;13.20;3.60;;;;;;;12.55;56.19;99451.67;145326;1257;102109;-87
2023/02/21 17:02:13;;;;;;;11.70;3.50;;;;;;;12.53;56.22;99457.08;145152;1260;101972;-89
2023/02/21 17:05:36;;;;;;;17.00;4.80;;;;;;;12.53;56.55;99460.04;145413;1269;102131;-87
2023/02/21 17:08:59;;;;;;;13.60;4.00;;;;;;;12.46;56.28;99463.34;145166;1264;98795;-85
2023/02/21 17:12:21;;;;;;;10.20;3.20;;;;;;;12.43;56.56;99466.30;145427;1260;98386;-84
2023/02/21 17:15:44;;;;;;;10.20;4.00;;;;;;;12.44;56.59;99469.78;145468;1257;97995;-83
2023/02/21 17:19:17;;;;;;;10.90;4.20;;;;;;;12.42;56.56;99479.20;145557;1261;105781;-84
2023/02/21 17:22:41;;;;;;;8.40;2.60;;;;;;;12.39;56.53;99477.80;145355;1257;107742;-85
2023/02/21 17:26:04;;;;;;;8.90;3.50;;;;;;;12.36;56.23;99485.11;145436;1261;167636;-87
2023/02/21 17:29:26;;;;;;;8.40;3.10;;;;;;;12.34;56.22;99488.59;145595;1259;98556;-88
2023/02/21 17:32:48;;;;;;;9.20;3.30;;;;;;;12.31;56.18;99489.61;145767;1259;98062;-87
2023/02/21 17:36:21;;;;;;;8.00;3.40;;;;;;;12.30;56.24;99494.84;145519;1260;97865;-84
2023/02/21 17:39:42;;;;;;;15.20;3.70;;;;;;;12.31;56.02;99496.06;145168;1261;97931;-87
2023/02/21 17:43:07;;;;;;;11.10;4.00;;;;;;;12.27;55.80;99498.85;145326;1257;97944;-88
2023/02/21 17:46:30;;;;;;;10.50;3.50;;;;;;;12.21;55.59;99503.53;145483;1260;97930;-86
2023/02/21 17:49:58;;;;;;;12.20;4.10;;;;;;;12.10;55.44;99501.41;145410;1257;98238;-88
2023/02/21 17:53:23;;;;;;;14.90;4.70;;;;;;;12.05;55.46;99506.10;145441;1260;97899;-87
2023/02/21 17:56:45;;;;;;;11.90;3.30;;;;;;;12.00;55.52;99505.90;145417;1257;98416;-88
2023/02/21 18:00:12;;;;;;;11.40;4.50;;;;;;;11.94;55.40;99509.89;145415;1261;97899;-86
2023/02/21 18:03:37;;;;;;;15.00;4.20;;;;;;;11.87;55.47;99514.90;145433;1259;97974;-88
2023/02/21 18:06:59;;;;;;;12.70;4.10;;;;;;;11.82;55.56;99512.58;145305;1260;97895;-88
2023/02/21 18:10:24;;;;;;;13.80;5.20;;;;;;;11.86;55.71;99520.13;145423;1260;97924;-87
2023/02/21 18:13:46;;;;;;;13.60;5.10;;;;;;;11.84;55.74;99514.35;145702;1257;99094;-87
2023/02/21 18:17:08;;;;;;;12.50;4.50;;;;;;;11.84;55.49;99515.23;145603;1270;99229;-85
2023/02/21 18:20:30;;;;;;;11.70;4.40;;;;;;;11.93;55.50;99523.64;145464;1257;99226;-83
2023/02/21 18:23:53;;;;;;;13.30;4.20;;;;;;;12.07;55.41;99528.40;145371;1260;109984;-81